Time;durP1;ratioP1;P1;durP2;ratioP2;P2;SDS_P1;SDS_P2;PMS_P1;PMS_P2;Temp;Humidity;BMP_temperature;BMP_pressure;BME280_temperature;BME280_humidity;BME280_pressure;Samples;Min_cycle;Max_cycle;Signal;HPM_P1;HPM_P2
2022/06/15 00:00:58;;;;;;;7.30;3.75;;;;;;;17.95;90.76;100026.38;5051607;28;20484;-63
2022/06/15 00:03:26;;;;;;;7.55;4.85;;;;;;;17.93;91.56;100018.38;5052503;28;20052;-63
2022/06/15 00:05:51;;;;;;;9.05;4.80;;;;;;;17.90;91.81;100018.59;5052904;28;20082;-63
2022/06/15 00:08:17;;;;;;;7.13;3.95;;;;;;;17.83;92.05;100019.91;5053160;28;20104;-63
2022/06/15 00:10:43;;;;;;;6.90;4.25;;;;;;;17.79;92.13;100033.66;5052709;28;20064;-63
2022/06/15 00:13:09;;;;;;;7.60;4.32;;;;;;;17.76;92.08;100029.31;5051809;28;20021;-63
2022/06/15 00:15:35;;;;;;;9.00;4.72;;;;;;;17.66;92.62;100019.25;5051132;28;20389;-63
2022/06/15 00:18:01;;;;;;;8.63;4.32;;;;;;;17.71;92.13;100022.50;5050017;28;20033;-63
2022/06/15 00:20:26;;;;;;;8.93;4.70;;;;;;;17.67;92.17;100027.22;5031566;28;20554;-63
2022/06/15 00:22:52;;;;;;;6.60;4.10;;;;;;;17.66;91.62;100020.09;5031542;28;20053;-63
2022/06/15 00:25:17;;;;;;;7.80;4.55;;;;;;;17.61;92.15;100026.72;5031458;28;20373;-63
2022/06/15 00:27:43;;;;;;;8.15;4.82;;;;;;;17.52;91.41;100028.16;5031855;28;20036;-63
2022/06/15 00:30:10;;;;;;;6.88;4.13;;;;;;;17.42;91.41;100034.13;5037173;28;20017;-63
2022/06/15 00:32:35;;;;;;;8.63;4.18;;;;;;;17.41;92.18;100019.84;5052327;28;20025;-64
2022/06/15 00:35:00;;;;;;;7.25;3.72;;;;;;;17.31;92.01;100021.34;5052611;28;20376;-63
2022/06/15 00:37:26;;;;;;;6.95;4.35;;;;;;;17.60;90.89;100014.22;5052434;28;20052;-63
2022/06/15 00:39:51;;;;;;;5.03;3.60;;;;;;;17.66;90.77;100019.25;5052307;28;20055;-63
2022/06/15 00:42:17;;;;;;;6.15;3.97;;;;;;;17.68;90.41;100012.78;5052339;28;20103;-63
2022/06/15 00:44:42;;;;;;;6.60;3.90;;;;;;;17.65;90.40;100015.69;5052488;28;20032;-63
2022/06/15 00:47:33;;;;;;;7.65;4.50;;;;;;;17.66;90.82;100014.69;5052311;28;20045;-63
2022/06/15 00:50:06;;;;;;;7.55;4.10;;;;;;;17.56;91.07;100008.16;5051492;28;20443;-63
2022/06/15 00:52:34;;;;;;;;;;;;;;;17.50;91.07;100008.53;5046627;28;20028;-63
2022/06/15 00:55:23;;;;;;;8.30;4.03;;;;;;;17.44;91.38;99997.25;5051182;28;19913;-63
2022/06/15 00:57:49;;;;;;;6.72;4.22;;;;;;;17.41;91.71;100003.69;5050659;28;20177;-63
2022/06/15 01:00:15;;;;;;;7.65;4.65;;;;;;;17.21;92.18;100001.34;5051042;28;20031;-63
2022/06/15 01:02:42;;;;;;;6.97;4.72;;;;;;;17.00;94.97;99998.09;5049963;28;20438;-63
2022/06/15 01:05:18;;;;;;;7.20;4.57;;;;;;;17.19;93.93;100000.56;5050816;28;20112;-63
2022/06/15 01:07:58;;;;;;;7.50;4.57;;;;;;;17.24;93.89;100001.16;5050555;28;20576;-63
2022/06/15 01:10:40;;;;;;;9.93;5.40;;;;;;;17.21;94.31;100001.34;5038923;28;20045;-63
2022/06/15 01:13:14;;;;;;;8.55;4.57;;;;;;;17.22;93.17;100002.19;5031721;28;20511;-63
2022/06/15 01:15:58;;;;;;;5.97;4.13;;;;;;;17.13;93.41;99997.38;5031718;28;20032;-63
2022/06/15 01:18:26;;;;;;;7.75;4.07;;;;;;;17.04;93.76;99998.78;5068072;28;20533;-63
2022/06/15 01:21:17;;;;;;;10.15;4.15;;;;;;;16.91;93.50;100006.69;5058675;28;20049;-63
2022/06/15 01:24:01;;;;;;;7.20;4.38;;;;;;;16.85;93.59;100008.88;5050683;28;20104;-63
2022/06/15 01:26:45;;;;;;;9.20;4.40;;;;;;;16.79;94.11;100004.72;5051275;28;20059;-63
2022/06/15 01:29:22;;;;;;;7.65;4.25;;;;;;;16.71;94.28;99998.94;5051560;28;20032;-63
2022/06/15 01:32:03;;;;;;;5.93;4.18;;;;;;;16.71;94.81;99990.00;5051249;28;20111;-63
2022/06/15 01:34:48;;;;;;;9.60;4.28;;;;;;;16.71;95.30;99998.94;5051334;28;20033;-63
2022/06/15 01:37:32;;;;;;;7.63;4.50;;;;;;;16.60;95.20;99987.94;5042342;28;20057;-63
2022/06/15 01:40:16;;;;;;;7.07;4.78;;;;;;;16.59;95.51;99998.78;5031246;28;20041;-63
2022/06/15 01:43:01;;;;;;;;;;;;;;;16.57;96.42;99989.94;5031748;28;20100;-63
2022/06/15 01:45:32;;;;;;;10.10;5.13;;;;;;;16.52;96.26;100000.91;5030907;28;20057;-63
2022/06/15 01:48:02;;;;;;;6.28;4.10;;;;;;;16.54;96.98;99998.19;5031486;28;20112;-63
2022/06/15 01:50:34;;;;;;;7.72;4.38;;;;;;;16.51;97.20;99998.31;5030983;28;20064;-63
2022/06/15 01:53:05;;;;;;;9.60;5.63;;;;;;;16.46;96.18;99992.34;5031024;28;20044;-63
2022/06/15 01:55:38;;;;;;;6.63;4.95;;;;;;;16.39;96.67;99994.47;5029734;28;20276;-63
2022/06/15 01:58:08;;;;;;;9.20;4.63;;;;;;;16.31;98.03;100004.78;5031215;28;20029;-63
2022/06/15 02:00:34;;;;;;;7.57;4.68;;;;;;;16.16;97.80;100004.78;5046922;28;20036;-63
2022/06/15 02:03:11;;;;;;;8.35;3.95;;;;;;;15.88;99.99;99999.22;5050967;28;20017;-63
2022/06/15 02:05:41;;;;;;;8.63;4.15;;;;;;;15.80;100.00;100004.97;5050663;28;20121;-63
2022/06/15 02:08:18;;;;;;;8.95;4.60;;;;;;;15.71;100.00;100014.41;5049596;28;20350;-63
2022/06/15 02:11:03;;;;;;;7.82;4.63;;;;;;;15.71;100.00;100011.72;5049178;28;20048;-63
2022/06/15 02:13:36;;;;;;;6.75;4.68;;;;;;;15.69;100.00;100016.28;5052050;28;20025;-63
2022/06/15 02:16:10;;;;;;;8.68;4.57;;;;;;;15.64;100.00;100010.31;5055888;28;20104;-63
2022/06/15 02:18:37;;;;;;;8.20;4.80;;;;;;;15.63;100.00;100013.06;5075772;28;20035;-63
2022/06/15 02:21:09;;;;;;;7.97;4.68;;;;;;;15.52;100.00;99997.53;5064155;28;20035;-63
2022/06/15 02:23:38;;;;;;;7.55;4.38;;;;;;;15.61;100.00;99999.75;5054754;28;20035;-63
2022/06/15 02:26:05;;;;;;;8.57;4.47;;;;;;;15.57;100.00;99998.16;5037476;28;20079;-63
2022/06/15 02:28:34;;;;;;;8.23;4.65;;;;;;;15.52;100.00;99989.50;5037475;28;20104;-63
2022/06/15 02:31:00;;;;;;;7.93;4.60;;;;;;;15.58;100.00;100005.25;5037000;28;20029;-63
2022/06/15 02:33:30;;;;;;;8.65;4.43;;;;;;;15.53;100.00;100007.31;5037289;28;20504;-63
2022/06/15 02:35:57;;;;;;;6.88;4.53;;;;;;;15.55;100.00;100005.41;5037304;28;20393;-63
2022/06/15 02:38:25;;;;;;;7.68;4.50;;;;;;;15.49;100.00;100011.13;5037256;28;20033;-63
2022/06/15 02:40:50;;;;;;;8.05;4.65;;;;;;;15.46;100.00;100005.03;5037229;28;20029;-63
2022/06/15 02:43:19;;;;;;;7.68;4.30;;;;;;;15.47;100.00;100004.97;5037223;28;20027;-63
2022/06/15 02:45:47;;;;;;;7.40;4.65;;;;;;;15.52;100.00;99997.53;5037220;28;20113;-63
2022/06/15 02:48:14;;;;;;;7.43;4.63;;;;;;;15.49;100.00;99989.66;5037255;28;20033;-63
2022/06/15 02:50:45;;;;;;;7.32;4.32;;;;;;;15.63;100.00;100000.50;5037087;28;20044;-63
2022/06/15 02:53:15;;;;;;;6.78;4.95;;;;;;;15.72;100.00;99994.66;5037243;28;20128;-63
2022/06/15 02:55:42;;;;;;;9.27;5.13;;;;;;;15.80;100.00;99989.75;5037356;28;20052;-63
2022/06/15 02:58:10;;;;;;;9.38;5.25;;;;;;;15.77;100.00;99995.28;5036847;28;20029;-63
2022/06/15 03:00:38;;;;;;;7.38;5.03;;;;;;;15.75;100.00;99994.50;5041451;28;20032;-63
2022/06/15 03:03:04;;;;;;;9.02;4.93;;;;;;;15.71;100.00;100009.03;5056211;28;20060;-63
2022/06/15 03:05:29;;;;;;;7.55;4.38;;;;;;;15.52;100.00;100000.22;5038783;28;20511;-63
2022/06/15 03:07:54;;;;;;;6.82;4.72;;;;;;;15.45;100.00;100004.16;5035870;28;20021;-63
2022/06/15 03:10:20;;;;;;;7.82;4.80;;;;;;;15.38;100.00;100008.09;5035799;28;20044;-64
2022/06/15 03:12:45;;;;;;;6.63;4.43;;;;;;;15.31;100.00;100005.81;5035699;28;20521;-63
2022/06/15 03:15:11;;;;;;;6.40;4.78;;;;;;;15.25;100.00;100004.31;5051260;28;20039;-63
2022/06/15 03:17:37;;;;;;;8.40;4.38;;;;;;;15.22;100.00;100007.13;5068272;28;20036;-63
2022/06/15 03:20:03;;;;;;;9.70;5.05;;;;;;;15.42;100.00;99998.13;5076680;28;20116;-63
2022/06/15 03:22:28;;;;;;;8.95;4.70;;;;;;;15.31;100.00;100001.31;5035631;28;20100;-63
2022/06/15 03:24:54;;;;;;;9.43;4.05;;;;;;;15.23;100.00;99995.50;5033083;28;20033;-63
2022/06/15 03:27:19;;;;;;;7.40;4.50;;;;;;;15.21;100.00;100000.06;5031508;28;20070;-63
2022/06/15 03:29:47;;;;;;;9.02;4.55;;;;;;;15.31;100.00;100008.47;5031930;28;20021;-63
2022/06/15 03:32:15;;;;;;;7.07;4.45;;;;;;;15.26;100.00;100008.72;5031743;28;20060;-63
2022/06/15 03:34:40;;;;;;;8.85;4.50;;;;;;;15.10;100.00;100013.16;5032759;28;20029;-63
2022/06/15 03:37:06;;;;;;;6.47;4.43;;;;;;;15.03;100.00;100017.06;5033479;28;20044;-63
2022/06/15 03:39:31;;;;;;;7.38;4.25;;;;;;;14.88;100.00;99985.69;5033612;28;20505;-63
2022/06/15 03:42:17;;;;;;;6.07;4.25;;;;;;;15.07;100.00;100020.47;5033246;28;20029;-63
2022/06/15 03:44:43;;;;;;;7.53;3.80;;;;;;;15.10;100.00;100014.94;5047819;28;20040;-63
2022/06/15 03:47:27;;;;;;;6.97;4.47;;;;;;;15.15;100.00;100019.13;5053160;28;20044;-63
2022/06/15 03:49:55;;;;;;;8.18;5.07;;;;;;;15.05;100.00;100006.28;5052795;28;20099;-63
2022/06/15 03:52:23;;;;;;;12.45;4.10;;;;;;;15.09;100.00;100022.13;5032200;28;20026;-63
2022/06/15 03:54:49;;;;;;;6.78;4.32;;;;;;;15.10;100.00;100013.16;5031568;28;20108;-63
2022/06/15 03:57:18;;;;;;;7.45;5.18;;;;;;;15.19;100.00;100023.38;5031443;28;20101;-63
2022/06/15 03:59:44;;;;;;;8.45;5.10;;;;;;;15.27;100.00;100031.88;5032423;28;20108;-63
2022/06/15 04:02:10;;;;;;;7.70;4.40;;;;;;;15.28;100.00;100030.97;5033029;28;20115;-63
2022/06/15 04:04:36;;;;;;;8.00;4.53;;;;;;;15.30;100.00;100037.13;5047955;28;20115;-63
2022/06/15 04:07:02;;;;;;;8.18;4.65;;;;;;;15.33;100.00;100038.75;5052632;28;20033;-63
2022/06/15 04:09:28;;;;;;;7.28;4.60;;;;;;;15.31;100.00;100028.13;5052945;28;20036;-63
2022/06/15 04:12:08;;;;;;;7.00;4.25;;;;;;;15.39;100.00;100039.34;5052857;28;20037;-63
2022/06/15 04:14:37;;;;;;;8.55;4.55;;;;;;;15.41;100.00;100039.25;5052946;28;20103;-63
2022/06/15 04:17:03;;;;;;;7.72;4.40;;;;;;;15.46;100.00;100043.44;5054806;28;20490;-63
2022/06/15 04:19:31;;;;;;;5.75;3.85;;;;;;;15.51;100.00;100045.88;5072584;28;20031;-63
2022/06/15 04:21:57;;;;;;;11.25;5.32;;;;;;;15.45;100.00;100036.34;5072531;28;20017;-63
2022/06/15 04:24:27;;;;;;;7.72;4.75;;;;;;;15.51;100.00;100044.06;5033887;28;20035;-63
2022/06/15 04:26:53;;;;;;;13.00;5.07;;;;;;;15.53;100.00;100039.47;5032692;28;20033;-63
2022/06/15 04:29:20;;;;;;;9.70;5.10;;;;;;;15.60;100.00;100051.63;5032725;28;20033;-63
2022/06/15 04:31:45;;;;;;;8.55;5.43;;;;;;;15.66;100.00;100056.69;5040352;28;20017;-63
2022/06/15 04:34:11;;;;;;;8.60;5.43;;;;;;;15.74;100.00;100053.59;5052214;28;20031;-63
2022/06/15 04:36:40;;;;;;;9.05;4.78;;;;;;;15.73;100.00;100047.34;5051211;28;20060;-63
2022/06/15 04:39:08;;;;;;;7.95;5.10;;;;;;;15.89;100.00;100055.47;5050744;28;20028;-63
2022/06/15 04:41:36;;;;;;;9.95;5.78;;;;;;;16.01;100.00;100053.94;5051292;28;20033;-63
2022/06/15 04:44:02;;;;;;;10.50;5.38;;;;;;;16.25;100.00;100060.63;5050685;28;20029;-63
2022/06/15 04:46:28;;;;;;;10.05;5.20;;;;;;;16.50;100.00;100055.69;5050702;28;20037;-64
2022/06/15 04:48:53;;;;;;;8.00;4.80;;;;;;;16.78;100.00;100055.84;5050676;28;20033;-64
2022/06/15 04:51:22;;;;;;;8.82;5.18;;;;;;;17.03;98.59;100053.50;5050499;28;20413;-64
2022/06/15 04:53:49;;;;;;;11.95;5.60;;;;;;;17.29;95.08;100063.56;5037466;28;20480;-64
2022/06/15 04:56:16;;;;;;;8.13;4.80;;;;;;;17.38;93.50;100063.00;5032261;28;20374;-64
2022/06/15 04:58:43;;;;;;;8.48;5.50;;;;;;;17.44;92.85;100059.09;5032057;28;20082;-63
2022/06/15 05:01:11;;;;;;;8.00;5.30;;;;;;;17.52;92.58;100056.84;5041112;28;20040;-63
2022/06/15 05:03:38;;;;;;;9.45;5.28;;;;;;;17.63;93.06;100057.94;5046286;28;20602;-63
2022/06/15 05:06:13;;;;;;;6.97;5.00;;;;;;;17.76;92.32;100066.16;5031887;28;20030;-63
2022/06/15 05:08:38;;;;;;;10.00;4.93;;;;;;;17.91;91.56;100062.50;5044026;28;20060;-63
2022/06/15 05:11:04;;;;;;;10.00;4.50;;;;;;;18.03;88.29;100059.03;5031385;28;20081;-63
2022/06/15 05:13:29;;;;;;;7.80;4.18;;;;;;;18.07;83.44;100053.38;5031027;28;20029;-64
2022/06/15 05:15:55;;;;;;;7.97;4.72;;;;;;;18.17;84.58;100049.13;5031510;28;20021;-64
2022/06/15 05:18:20;;;;;;;8.13;4.40;;;;;;;18.06;86.21;100065.09;5063687;28;20475;-64
2022/06/15 05:20:46;;;;;;;7.72;4.72;;;;;;;18.11;83.86;100063.00;5040880;28;20036;-63
2022/06/15 05:23:14;;;;;;;8.40;4.28;;;;;;;18.07;82.94;100039.06;5041830;28;20021;-63
2022/06/15 05:25:39;;;;;;;6.25;3.88;;;;;;;18.35;83.34;100066.81;5031444;28;20072;-64
2022/06/15 05:28:05;;;;;;;7.68;4.60;;;;;;;18.50;81.56;100067.72;5031244;28;20452;-64
2022/06/15 05:30:31;;;;;;;6.82;4.07;;;;;;;18.66;80.50;100073.00;5031411;28;20052;-64
2022/06/15 05:32:56;;;;;;;8.98;4.38;;;;;;;18.80;81.05;100059.47;5031355;28;20117;-64
2022/06/15 05:35:22;;;;;;;7.13;4.65;;;;;;;18.91;79.16;100060.50;5031533;28;20389;-64
2022/06/15 05:37:47;;;;;;;9.75;4.65;;;;;;;19.04;76.47;100068.66;5031154;28;20033;-63
2022/06/15 05:40:13;;;;;;;10.15;4.90;;;;;;;19.18;78.47;100066.75;5031150;28;20493;-63
2022/06/15 05:42:38;;;;;;;7.40;4.53;;;;;;;19.28;77.43;100067.00;5031209;28;20059;-63
2022/06/15 05:45:05;;;;;;;9.27;4.65;;;;;;;19.36;77.44;100059.28;5048447;28;20104;-63
2022/06/15 05:47:31;;;;;;;11.20;5.13;;;;;;;19.46;77.72;100069.38;5051106;28;20021;-63
2022/06/15 05:49:58;;;;;;;8.20;4.95;;;;;;;19.59;74.91;100074.78;5044941;28;20082;-63
2022/06/15 05:52:23;;;;;;;9.27;5.20;;;;;;;19.69;75.04;100078.56;5045381;28;20055;-63
2022/06/15 05:54:49;;;;;;;10.88;5.10;;;;;;;19.76;74.65;100069.09;5031876;28;20045;-63
2022/06/15 05:57:23;;;;;;;13.52;5.22;;;;;;;19.85;75.77;100070.31;5036369;28;20508;-64
2022/06/15 05:59:50;;;;;;;9.93;5.20;;;;;;;19.96;74.41;100076.69;5028971;28;20033;-64
2022/06/15 06:02:17;;;;;;;8.98;5.25;;;;;;;19.98;72.72;100074.75;5029244;28;20143;-64
2022/06/15 06:04:43;;;;;;;7.03;4.28;;;;;;;20.04;72.05;100079.69;5030629;28;20475;-64
2022/06/15 06:07:10;;;;;;;10.23;5.05;;;;;;;20.05;72.36;100076.03;5034555;28;20105;-64
2022/06/15 06:09:36;;;;;;;12.07;5.85;;;;;;;20.15;72.30;100071.72;5048703;28;20431;-64
2022/06/15 06:12:01;;;;;;;8.25;5.25;;;;;;;20.26;72.45;100069.13;5048382;28;20329;-64
2022/06/15 06:14:27;;;;;;;7.75;5.55;;;;;;;20.44;72.81;100070.53;5049392;28;20075;-64
2022/06/15 06:16:52;;;;;;;7.75;4.43;;;;;;;20.64;73.38;100074.50;5046520;28;20389;-64
2022/06/15 06:19:18;;;;;;;8.35;4.93;;;;;;;20.71;70.72;100071.22;5046599;28;20517;-64
2022/06/15 06:21:43;;;;;;;8.23;5.43;;;;;;;20.74;71.69;100076.41;5041173;28;20017;-63
2022/06/15 06:24:10;;;;;;;9.30;5.30;;;;;;;20.87;72.04;100073.69;5031957;28;20025;-63
2022/06/15 06:26:36;;;;;;;7.50;4.85;;;;;;;20.99;71.31;100074.66;5034640;28;20121;-63
2022/06/15 06:29:02;;;;;;;9.27;4.95;;;;;;;21.07;71.06;100073.06;5035836;28;20037;-63
2022/06/15 06:31:29;;;;;;;12.45;5.55;;;;;;;21.20;71.59;100078.44;5047299;28;20063;-63
2022/06/15 06:33:55;;;;;;;10.00;4.68;;;;;;;21.43;70.83;100074.88;5047287;28;20057;-63
2022/06/15 06:36:45;;;;;;;9.32;5.18;;;;;;;21.66;69.36;100082.09;5033561;28;20029;-63
2022/06/15 06:39:30;;;;;;;7.18;3.95;;;;;;;21.82;67.30;100088.06;5031444;28;20045;-63
2022/06/15 06:41:58;;;;;;;6.90;4.45;;;;;;;21.88;67.14;100082.19;5046279;28;20044;-63
2022/06/15 06:44:24;;;;;;;9.80;5.15;;;;;;;22.05;67.85;100089.84;5048339;28;20033;-63
2022/06/15 06:46:51;;;;;;;7.55;5.25;;;;;;;22.20;68.30;100088.66;5048979;28;20115;-63
2022/06/15 06:49:18;;;;;;;9.02;5.00;;;;;;;22.32;67.33;100093.13;5048885;28;20028;-63
2022/06/15 06:51:44;;;;;;;8.88;4.85;;;;;;;22.50;65.58;100088.94;5032633;28;20543;-63
2022/06/15 06:54:13;;;;;;;10.23;5.40;;;;;;;22.64;65.49;100087.81;5039657;28;20578;-63
2022/06/15 06:56:38;;;;;;;7.15;4.68;;;;;;;22.85;65.02;100097.78;5029253;28;20029;-63
2022/06/15 06:59:06;;;;;;;13.65;5.43;;;;;;;23.09;65.60;100090.38;5036299;28;20036;-63
2022/06/15 07:01:36;;;;;;;9.82;5.75;;;;;;;23.30;65.63;100094.03;5051771;28;20021;-63
2022/06/15 07:04:02;;;;;;;9.02;4.97;;;;;;;23.46;65.19;100092.75;5047843;28;20045;-63
2022/06/15 07:06:27;;;;;;;8.50;5.85;;;;;;;23.66;65.59;100084.63;5042835;28;20032;-63
2022/06/15 07:08:53;;;;;;;8.15;5.40;;;;;;;23.81;64.71;100096.91;5039976;28;20427;-63
2022/06/15 07:11:19;;;;;;;10.75;6.20;;;;;;;23.96;64.17;100098.31;5032136;28;20500;-63
2022/06/15 07:13:45;;;;;;;8.30;5.53;;;;;;;24.03;64.77;100093.25;5037475;28;20460;-63
2022/06/15 07:16:14;;;;;;;8.52;5.70;;;;;;;24.20;64.57;100100.81;5032530;28;20043;-63
2022/06/15 07:18:39;;;;;;;8.07;5.60;;;;;;;24.40;62.77;100105.34;5043465;28;20136;-63
2022/06/15 07:21:13;;;;;;;8.57;5.57;;;;;;;24.46;62.58;100102.09;5059117;28;20387;-63
2022/06/15 07:23:43;;;;;;;8.50;4.80;;;;;;;24.65;60.71;100102.16;5054614;28;20033;-63
2022/06/15 07:26:12;;;;;;;8.70;5.00;;;;;;;24.81;60.98;100113.44;5035043;28;20037;-63
2022/06/15 07:28:39;;;;;;;11.45;4.85;;;;;;;24.91;58.99;100113.50;5065391;28;20047;-63
2022/06/15 07:31:05;;;;;;;7.78;4.60;;;;;;;25.24;58.13;100110.44;5070057;28;20107;-63
2022/06/15 07:33:32;;;;;;;8.93;4.43;;;;;;;25.54;56.23;100115.78;5072649;28;20488;-63
2022/06/15 07:35:57;;;;;;;7.05;4.25;;;;;;;25.79;55.81;100117.97;5068281;28;20082;-63
2022/06/15 07:38:23;;;;;;;9.30;4.40;;;;;;;26.29;55.03;100110.47;5071595;28;20024;-63
2022/06/15 07:40:49;;;;;;;9.30;4.85;;;;;;;26.93;54.07;100117.75;5048136;28;20025;-63
2022/06/15 07:43:16;;;;;;;8.15;4.47;;;;;;;27.15;52.77;100111.00;5031885;28;20021;-63
2022/06/15 07:45:42;;;;;;;6.63;4.28;;;;;;;27.21;52.67;100118.63;5031860;28;20075;-63
2022/06/15 07:50:51;;;;;;;6.03;3.88;;;;;;;27.77;48.30;100123.84;5038722;28;20051;-63
2022/06/15 07:53:18;;;;;;;11.07;4.15;;;;;;;28.11;48.51;100114.78;5042001;28;20375;-64
2022/06/15 07:55:45;;;;;;;8.80;4.35;;;;;;;28.64;49.54;100116.56;5031405;28;20437;-64
2022/06/15 07:58:11;;;;;;;9.48;4.28;;;;;;;28.84;48.08;100115.28;5032061;28;20033;-66
2022/06/15 08:00:42;;;;;;;8.93;4.35;;;;;;;28.73;46.72;100112.84;5045062;28;20509;-66
2022/06/15 08:03:09;;;;;;;8.75;3.90;;;;;;;28.78;46.87;100115.97;5033085;28;20029;-66
2022/06/15 08:05:40;;;;;;;12.60;6.63;;;;;;;28.94;46.02;100110.56;5030888;28;20492;-66
2022/06/15 08:08:13;;;;;;;8.23;4.72;;;;;;;29.28;47.79;100108.66;5031417;28;20108;-66
2022/06/15 08:10:39;;;;;;;9.30;4.70;;;;;;;29.42;44.47;100113.50;5031149;28;20068;-66
2022/06/15 08:13:07;;;;;;;10.38;5.05;;;;;;;29.23;44.11;100106.44;5031500;28;20489;-66
2022/06/15 08:15:32;;;;;;;8.50;4.55;;;;;;;29.47;45.32;100108.38;5030121;28;20112;-66
2022/06/15 08:18:03;;;;;;;7.32;4.53;;;;;;;29.72;45.46;100101.94;5031477;28;20108;-66
2022/06/15 08:20:36;;;;;;;8.82;5.00;;;;;;;30.06;44.23;100110.88;5031424;28;20452;-66
2022/06/15 08:23:10;;;;;;;;;;;;;;;29.66;44.23;100113.59;5031804;28;20033;-66
2022/06/15 08:25:39;;;;;;;11.75;4.70;;;;;;;30.31;43.90;100118.09;5033889;28;20286;-68
2022/06/15 08:28:07;;;;;;;8.25;3.85;;;;;;;30.58;40.73;100117.72;5067451;28;20081;-67
2022/06/15 08:30:36;;;;;;;10.05;4.90;;;;;;;30.92;43.02;100119.38;5071087;28;20020;-67
2022/06/15 08:33:02;;;;;;;7.63;3.92;;;;;;;30.98;43.67;100107.66;5070943;28;20379;-67
2022/06/15 08:35:28;;;;;;;5.82;3.58;;;;;;;30.89;40.57;100115.94;5070920;28;20111;-67
2022/06/15 08:37:53;;;;;;;7.57;3.70;;;;;;;30.96;42.16;100116.09;5071189;28;20107;-67
2022/06/15 08:40:19;;;;;;;7.10;4.05;;;;;;;31.31;40.46;100115.59;5070796;28;20024;-67
2022/06/15 08:42:55;;;;;;;7.10;4.32;;;;;;;31.42;40.04;100114.34;5070793;28;20086;-67
2022/06/15 08:45:43;;;;;;;5.88;4.13;;;;;;;31.40;40.18;100113.69;5059189;28;20125;-67
2022/06/15 08:48:56;;;;;;;6.82;3.92;;;;;;;31.54;41.87;100115.66;5050746;28;20116;-67
2022/06/15 08:51:27;;;;;;;7.00;4.15;;;;;;;31.40;40.28;100113.69;5041281;28;20385;-67
2022/06/15 08:54:17;;;;;;;8.65;3.33;;;;;;;31.10;40.18;100109.00;5043958;28;20044;-67
2022/06/15 08:56:58;;;;;;;6.13;3.33;;;;;;;30.95;39.42;100113.53;5050720;28;20078;-67
2022/06/15 08:59:50;;;;;;;8.80;4.03;;;;;;;31.54;40.52;100115.66;5050866;28;20024;-67
2022/06/15 09:02:38;;;;;;;7.97;4.03;;;;;;;31.86;40.23;100118.25;5050343;28;20480;-67
2022/06/15 09:05:12;;;;;;;7.75;3.50;;;;;;;32.07;38.94;100113.78;5050421;28;20101;-67
2022/06/15 09:07:59;;;;;;;5.07;3.53;;;;;;;32.11;39.70;100115.09;5050412;28;20086;-67
2022/06/15 09:10:30;;;;;;;7.40;3.45;;;;;;;31.98;39.89;100112.13;5050952;28;20378;-67
2022/06/15 09:13:04;;;;;;;8.15;3.30;;;;;;;32.18;38.84;100106.94;5051646;28;20029;-67
2022/06/15 09:15:47;;;;;;;6.45;3.45;;;;;;;32.63;39.37;100104.13;5048637;28;20025;-67
2022/06/15 09:18:36;;;;;;;6.97;3.78;;;;;;;32.72;38.30;100107.66;5044019;28;20098;-67
2022/06/15 09:21:11;;;;;;;5.53;3.80;;;;;;;32.76;38.39;100114.50;5051734;28;20048;-66
2022/06/15 09:23:44;;;;;;;5.95;2.95;;;;;;;32.76;38.80;100098.81;5037453;28;20052;-67
2022/06/15 09:26:18;;;;;;;7.18;3.50;;;;;;;32.97;38.59;100106.34;5030262;28;20025;-67
2022/06/15 09:28:49;;;;;;;4.68;2.65;;;;;;;33.15;37.70;100104.03;5069689;28;20089;-67
2022/06/15 09:31:24;;;;;;;7.75;3.20;;;;;;;33.35;35.80;100097.75;5069169;28;20131;-67
2022/06/15 09:33:56;;;;;;;5.20;3.08;;;;;;;33.31;36.86;100098.34;5062226;28;20480;-67
2022/06/15 09:36:29;;;;;;;5.60;2.70;;;;;;;33.50;37.09;100105.16;5049959;28;20033;-67
2022/06/15 09:38:54;;;;;;;5.38;3.38;;;;;;;33.77;36.96;100101.66;5038501;28;20064;-67
2022/06/15 09:41:20;;;;;;;7.18;3.00;;;;;;;33.91;36.37;100096.09;5031215;28;20057;-67
2022/06/15 09:44:08;;;;;;;4.93;2.67;;;;;;;33.76;35.25;100092.50;5031451;28;20033;-67
2022/06/15 09:46:42;;;;;;;5.47;2.78;;;;;;;33.73;36.57;100103.94;5031709;28;20072;-67
2022/06/15 09:49:29;;;;;;;6.43;2.90;;;;;;;33.27;36.63;100097.00;5031241;28;20036;-67
2022/06/15 09:52:03;;;;;;;7.38;3.00;;;;;;;32.90;36.59;100100.75;5030755;28;20036;-68
2022/06/15 09:54:52;;;;;;;5.38;3.22;;;;;;;32.94;36.60;100113.13;5038118;28;20025;-67
2022/06/15 09:57:20;;;;;;;7.57;3.45;;;;;;;33.20;37.24;100094.16;5051045;28;20054;-67
2022/06/15 09:59:45;;;;;;;4.95;3.15;;;;;;;33.46;34.33;100101.09;5050199;28;20426;-67
2022/06/15 10:02:28;;;;;;;6.70;2.78;;;;;;;33.91;35.40;100097.97;5048917;28;20029;-67
2022/06/15 10:04:56;;;;;;;7.85;3.17;;;;;;;33.98;34.18;100090.63;5049165;28;20026;-67
2022/06/15 10:07:37;;;;;;;5.35;2.75;;;;;;;33.77;35.20;100094.25;5049131;28;20558;-67
2022/06/15 10:10:23;;;;;;;7.82;3.30;;;;;;;33.77;35.76;100087.84;5048890;28;20497;-67
2022/06/15 10:13:04;;;;;;;6.25;2.90;;;;;;;33.65;35.64;100089.41;5048653;28;20040;-67
2022/06/15 10:15:40;;;;;;;6.57;2.88;;;;;;;33.80;34.01;100092.97;5050650;28;20588;-66
2022/06/15 10:18:30;;;;;;;5.45;2.97;;;;;;;34.19;34.33;100087.84;5050788;28;20387;-67
2022/06/15 10:21:17;;;;;;;5.88;3.70;;;;;;;34.34;35.14;100083.09;5050849;28;20029;-67
2022/06/15 10:23:51;;;;;;;4.72;3.08;;;;;;;34.25;34.11;100087.06;5037388;28;20071;-67
2022/06/15 10:26:23;;;;;;;5.53;2.83;;;;;;;34.45;33.77;100079.81;5033418;28;20583;-67
2022/06/15 10:28:49;;;;;;;5.03;2.60;;;;;;;34.45;35.43;100077.03;5041489;28;20084;-67
2022/06/15 10:31:15;;;;;;;6.07;3.33;;;;;;;34.66;34.38;100082.53;5030562;28;20061;-67
2022/06/15 10:33:46;;;;;;;5.40;2.88;;;;;;;34.67;33.30;100081.47;5030891;28;20060;-67
2022/06/15 10:36:33;;;;;;;4.75;3.15;;;;;;;34.56;33.49;100076.50;5034898;28;20029;-67
2022/06/15 10:39:18;;;;;;;6.32;2.65;;;;;;;34.60;32.46;100058.44;5037338;28;20056;-67
2022/06/15 10:41:47;;;;;;;6.38;2.70;;;;;;;34.57;33.36;100078.19;5034525;28;20024;-67
2022/06/15 10:44:14;;;;;;;5.07;2.70;;;;;;;34.92;33.15;100063.34;5034636;28;20029;-67
2022/06/15 10:46:58;;;;;;;5.85;2.70;;;;;;;35.30;34.11;100070.13;5034826;28;20100;-67
2022/06/15 10:49:25;;;;;;;4.13;2.38;;;;;;;35.60;34.15;100063.22;5034636;28;20029;-67
2022/06/15 10:51:52;;;;;;;7.07;3.10;;;;;;;35.78;35.45;100069.00;5037374;28;20029;-67
2022/06/15 11:03:23;;;;;;;5.38;2.50;;;;;;;36.00;33.84;100064.16;5054112;28;20040;-67
2022/06/15 11:05:51;;;;;;;6.38;2.50;;;;;;;36.43;33.11;100067.38;5054345;28;20553;-67
2022/06/15 11:08:23;;;;;;;5.25;2.33;;;;;;;36.27;32.31;100065.00;5054057;28;20040;-67
2022/06/15 11:10:52;;;;;;;4.53;1.92;;;;;;;35.88;30.53;100059.47;5044937;28;20049;-68
2022/06/15 11:13:49;;;;;;;4.18;1.80;;;;;;;35.96;31.07;100053.72;5053846;28;20068;-67
2022/06/15 11:19:12;;;;;;;3.08;1.83;;;;;;;36.60;30.15;100040.91;5053928;28;20040;-67
2022/06/15 11:21:47;;;;;;;3.17;1.88;;;;;;;36.66;30.54;100049.22;5052219;28;20083;-67
2022/06/15 11:24:15;;;;;;;6.25;2.10;;;;;;;36.53;27.15;100048.38;5034213;28;20473;-68
2022/06/15 11:26:54;;;;;;;3.15;1.45;;;;;;;36.83;28.75;100049.63;5040893;28;20081;-67
2022/06/15 11:29:38;;;;;;;2.45;1.50;;;;;;;37.20;26.25;100051.63;5073232;28;20102;-67
2022/06/15 11:32:30;;;;;;;4.13;1.50;;;;;;;37.45;27.86;100047.03;5073933;28;20033;-67
2022/06/15 11:35:21;;;;;;;4.60;1.70;;;;;;;37.15;27.87;100043.13;5073739;28;20035;-67
2022/06/15 11:38:10;;;;;;;6.22;1.80;;;;;;;37.24;26.29;100041.81;5072968;28;20033;-67
2022/06/15 11:40:56;;;;;;;3.83;1.60;;;;;;;37.09;26.61;100041.22;5073708;28;20116;-67
2022/06/15 11:43:30;;;;;;;4.93;1.80;;;;;;;36.87;29.29;100045.38;5050353;28;20021;-67
2022/06/15 11:46:28;;;;;;;4.43;1.70;;;;;;;36.66;28.00;100048.34;5052769;28;20029;-67
2022/06/15 11:49:30;;;;;;;4.70;2.10;;;;;;;36.67;28.40;100039.00;5052970;28;20037;-67
2022/06/15 11:52:02;;;;;;;2.92;1.70;;;;;;;36.99;28.58;100038.06;5052802;28;20032;-67
2022/06/15 11:54:45;;;;;;;3.25;1.73;;;;;;;37.32;26.58;100038.78;5033173;28;20088;-66
2022/06/15 11:57:18;;;;;;;4.90;2.20;;;;;;;37.00;26.77;100035.06;5033048;28;20026;-67